Time;durP1;ratioP1;P1;durP2;ratioP2;P2;SDS_P1;SDS_P2;PMS_P1;PMS_P2;Temp;Humidity;BMP_temperature;BMP_pressure;BME280_temperature;BME280_humidity;BME280_pressure;Samples;Min_cycle;Max_cycle;Signal;HPM_P1;HPM_P2
2022/09/07 00:00:16;;;;;;;8.70;2.60;;;;;;;12.47;48.84;99166.96;89056;1279;22664;-77
2022/09/07 00:02:36;;;;;;;5.60;2.90;;;;;;;12.44;49.10;99165.31;89058;1279;22559;-78
2022/09/07 00:04:38;;;;;;;6.50;2.80;;;;;;;12.41;49.05;99168.46;89119;1279;22871;-78
2022/09/07 00:06:40;;;;;;;14.30;3.50;;;;;;;12.38;49.02;99167.23;89018;1279;22526;-78
2022/09/07 00:08:43;;;;;;;13.10;3.20;;;;;;;12.34;49.09;99171.83;89096;1278;24169;-78
2022/09/07 00:11:16;;;;;;;5.30;3.10;;;;;;;12.31;49.13;99169.87;89063;1279;23176;-77
2022/09/07 00:13:18;;;;;;;6.70;2.90;;;;;;;12.26;49.19;99166.80;89104;1279;22512;-77
2022/09/07 00:15:20;;;;;;;7.30;3.00;;;;;;;12.22;49.30;99163.48;88986;1279;24353;-79
2022/09/07 00:17:22;;;;;;;6.60;2.60;;;;;;;12.19;49.29;99168.92;88970;1280;23814;-78
2022/09/07 00:19:24;;;;;;;3.50;2.90;;;;;;;12.16;49.33;99170.13;88921;1281;23053;-78
2022/09/07 00:21:26;;;;;;;4.90;3.30;;;;;;;12.16;49.31;99166.83;89041;1279;23483;-78
2022/09/07 00:23:30;;;;;;;6.50;3.30;;;;;;;12.12;49.35;99164.73;88771;1281;25389;-77
2022/09/07 00:25:37;;;;;;;4.50;2.80;;;;;;;12.09;49.54;99161.33;88955;1279;22665;-77
2022/09/07 00:27:40;;;;;;;11.20;3.50;;;;;;;12.07;49.86;99161.40;88741;1279;25170;-77
2022/09/07 00:29:42;;;;;;;9.20;3.20;;;;;;;12.05;49.72;99166.30;89010;1276;22590;-78
2022/09/07 00:31:44;;;;;;;8.60;2.90;;;;;;;12.01;49.65;99161.03;88792;1280;22531;-76
2022/09/07 00:33:47;;;;;;;5.70;2.80;;;;;;;11.96;49.78;99164.79;88935;1279;24277;-78
2022/09/07 00:35:49;;;;;;;11.90;3.00;;;;;;;11.95;49.80;99165.58;88817;1280;23380;-78
2022/09/07 00:37:51;;;;;;;11.50;3.10;;;;;;;11.88;49.90;99159.17;88963;1279;23459;-77
2022/09/07 00:39:53;;;;;;;4.60;3.00;;;;;;;11.89;49.88;99163.01;88988;1279;22586;-78
2022/09/07 00:41:54;;;;;;;8.00;2.80;;;;;;;11.87;49.95;99155.39;89103;1276;22776;-77
2022/09/07 00:44:18;;;;;;;6.10;3.20;;;;;;;11.82;50.18;99158.11;89009;1276;24264;-77
2022/09/07 00:46:24;;;;;;;5.30;3.00;;;;;;;11.79;50.04;99162.66;88974;1279;22503;-77
2022/09/07 00:49:00;;;;;;;12.30;3.20;;;;;;;11.75;50.15;99161.77;89162;1276;22870;-77
2022/09/07 00:51:08;;;;;;;4.10;3.00;;;;;;;11.70;50.28;99159.54;89051;1276;23053;-77
2022/09/07 00:53:19;;;;;;;7.50;2.80;;;;;;;11.64;50.29;99157.38;89071;1276;24715;-77
2022/09/07 00:55:21;;;;;;;15.40;3.30;;;;;;;11.61;50.34;99157.56;89034;1279;22635;-78
2022/09/07 00:57:23;;;;;;;4.60;2.80;;;;;;;11.54;50.47;99155.25;88957;1281;24160;-77
2022/09/07 00:59:30;;;;;;;3.40;2.60;;;;;;;11.50;50.44;99152.46;88917;1279;22593;-78
2022/09/07 01:01:34;;;;;;;3.50;2.90;;;;;;;11.46;50.59;99154.06;89034;1279;22621;-77
2022/09/07 01:03:44;;;;;;;4.20;3.00;;;;;;;11.42;50.50;99150.71;89019;1279;22586;-77
2022/09/07 01:05:59;;;;;;;8.20;2.90;;;;;;;11.39;50.58;99147.70;89018;1279;22604;-77
2022/09/07 01:08:02;;;;;;;10.00;3.20;;;;;;;11.35;50.57;99149.48;89334;1279;23008;-77
2022/09/07 01:10:05;;;;;;;10.30;3.00;;;;;;;11.33;50.73;99147.81;89048;1279;22784;-77
2022/09/07 01:12:07;;;;;;;6.20;3.30;;;;;;;11.30;50.89;99148.68;89049;1279;22558;-77
2022/09/07 01:14:11;;;;;;;7.50;3.20;;;;;;;11.28;51.00;99148.08;88888;1281;22595;-77
2022/09/07 01:16:16;;;;;;;9.50;3.40;;;;;;;11.25;51.03;99142.38;89001;1279;22627;-77
2022/09/07 01:18:35;;;;;;;9.20;3.20;;;;;;;11.23;51.02;99145.14;89097;1276;25559;-77
2022/09/07 01:20:54;;;;;;;3.70;3.10;;;;;;;11.18;51.12;99146.42;87977;1279;1416614;-78
2022/09/07 01:23:05;;;;;;;5.30;3.40;;;;;;;11.17;51.17;99146.12;89114;1278;22673;-78
2022/09/07 01:25:13;;;;;;;4.10;3.00;;;;;;;11.17;51.28;99148.58;88934;1276;22583;-77
2022/09/07 01:27:41;;;;;;;6.00;3.70;;;;;;;11.17;51.22;99143.84;89063;1279;22581;-77
2022/09/07 01:29:52;;;;;;;14.30;3.40;;;;;;;11.18;51.40;99143.45;88561;1284;25553;-78
2022/09/07 01:32:00;;;;;;;6.20;3.30;;;;;;;11.17;51.52;99142.80;88599;1285;24247;-76
2022/09/07 01:34:25;;;;;;;11.50;3.40;;;;;;;11.14;51.45;99136.44;88597;1284;22785;-79
2022/09/07 01:36:38;;;;;;;6.00;2.80;;;;;;;11.13;51.53;99130.69;88224;1287;22602;-77
2022/09/07 01:38:57;;;;;;;4.40;3.30;;;;;;;11.12;51.67;99130.02;88243;1287;22730;-77
2022/09/07 01:41:17;;;;;;;13.70;3.50;;;;;;;11.09;51.68;99131.56;88109;1290;22575;-77
2022/09/07 01:43:31;;;;;;;14.10;4.00;;;;;;;11.10;51.73;99135.39;88247;1287;22597;-77
2022/09/07 01:45:38;;;;;;;6.90;3.60;;;;;;;11.09;51.59;99129.45;88117;1287;22575;-77
2022/09/07 01:47:47;;;;;;;4.90;3.20;;;;;;;11.04;51.86;99125.26;88300;1287;23738;-77
2022/09/07 01:49:55;;;;;;;9.50;3.20;;;;;;;11.03;51.64;99126.20;88249;1287;22676;-78
2022/09/07 01:52:02;;;;;;;3.60;3.30;;;;;;;11.01;51.80;99118.92;88302;1287;23050;-78
2022/09/07 01:54:21;;;;;;;13.60;3.80;;;;;;;10.99;51.85;99118.85;88321;1288;24209;-78
2022/09/07 01:56:32;;;;;;;15.80;3.90;;;;;;;10.98;51.84;99120.44;88366;1288;22595;-77
2022/09/07 01:58:57;;;;;;;4.10;3.30;;;;;;;11.00;51.85;99117.92;88012;1289;24358;-78
2022/09/07 02:01:09;;;;;;;10.20;4.00;;;;;;;10.99;51.75;99114.10;88043;1288;22803;-77
2022/09/07 02:03:38;;;;;;;10.70;4.10;;;;;;;10.95;51.83;99107.60;88126;1287;25397;-77
2022/09/07 02:06:11;;;;;;;9.20;3.50;;;;;;;10.99;52.03;99116.19;87908;1291;22572;-77
2022/09/07 02:08:24;;;;;;;11.00;3.80;;;;;;;10.97;51.93;99117.34;88566;1282;22819;-77
2022/09/07 02:10:34;;;;;;;4.60;3.80;;;;;;;10.98;51.94;99119.06;88594;1285;24229;-78
2022/09/07 02:12:51;;;;;;;10.90;3.70;;;;;;;10.96;52.05;99117.75;88348;1287;22673;-77
2022/09/07 02:15:00;;;;;;;13.70;3.60;;;;;;;10.95;52.01;99114.83;88885;1279;23044;-77
2022/09/07 02:17:21;;;;;;;12.90;3.80;;;;;;;10.92;52.22;99109.71;88978;1279;23380;-77
2022/09/07 02:19:25;;;;;;;4.40;3.60;;;;;;;10.91;52.11;99112.37;89026;1280;23257;-78
2022/09/07 02:21:35;;;;;;;7.20;4.00;;;;;;;10.89;52.19;99109.84;88965;1279;22515;-78
2022/09/07 02:23:48;;;;;;;7.80;3.80;;;;;;;10.86;52.40;99109.98;89009;1279;24341;-77
2022/09/07 02:26:00;;;;;;;10.20;3.70;;;;;;;10.79;52.37;99103.25;88837;1279;22954;-77
2022/09/07 02:28:08;;;;;;;6.30;3.60;;;;;;;10.79;52.37;99108.01;89057;1279;25275;-78
2022/09/07 02:30:12;;;;;;;11.00;3.60;;;;;;;10.76;52.48;99108.86;89277;1276;24671;-78
2022/09/07 02:32:14;;;;;;;8.70;4.00;;;;;;;10.73;52.44;99104.60;88999;1279;24495;-78
2022/09/07 02:34:16;;;;;;;13.40;4.10;;;;;;;10.69;52.44;99106.52;89027;1276;22575;-78
2022/09/07 02:36:20;;;;;;;6.50;4.10;;;;;;;10.64;52.44;99107.12;88996;1279;22585;-78
2022/09/07 02:38:23;;;;;;;8.30;4.00;;;;;;;10.58;52.59;99105.66;89167;1279;22558;-78
2022/09/07 02:40:25;;;;;;;8.30;4.10;;;;;;;10.52;52.79;99108.05;89025;1279;23875;-77
2022/09/07 02:42:33;;;;;;;7.80;4.40;;;;;;;10.46;52.77;99105.68;88847;1279;22627;-78
2022/09/07 02:44:39;;;;;;;9.10;4.80;;;;;;;10.40;52.83;99099.77;88937;1279;22750;-78
2022/09/07 02:46:51;;;;;;;5.60;4.10;;;;;;;10.35;52.97;99093.84;89072;1279;22598;-78
2022/09/07 02:49:27;;;;;;;11.70;4.30;;;;;;;10.29;53.09;99094.11;89111;1279;22572;-79
2022/09/07 02:51:43;;;;;;;6.30;4.10;;;;;;;10.23;53.13;99094.55;89063;1276;22702;-76
2022/09/07 02:53:57;;;;;;;5.90;3.80;;;;;;;10.16;53.10;99097.48;89005;1276;22576;-77
2022/09/07 02:56:22;;;;;;;4.80;4.10;;;;;;;10.09;53.49;99093.58;89116;1277;22786;-77
2022/09/07 02:58:36;;;;;;;9.60;3.90;;;;;;;10.03;53.55;99097.16;89003;1279;22612;-77
2022/09/07 03:00:48;;;;;;;6.20;4.20;;;;;;;9.98;53.46;99101.23;88926;1276;22610;-76
2022/09/07 03:03:11;;;;;;;8.10;4.20;;;;;;;9.93;53.53;99098.66;88874;1279;23031;-77
2022/09/07 03:05:29;;;;;;;8.00;4.00;;;;;;;9.90;53.59;99099.85;88968;1279;25412;-77
2022/09/07 03:07:45;;;;;;;10.10;4.10;;;;;;;9.86;53.61;99101.76;88854;1279;22610;-78
2022/09/07 03:09:49;;;;;;;10.50;4.30;;;;;;;9.84;53.68;99102.20;88925;1279;23057;-77
2022/09/07 03:11:51;;;;;;;5.70;4.00;;;;;;;9.81;53.55;99102.33;89286;1279;22565;-78
2022/09/07 03:14:20;;;;;;;6.40;4.90;;;;;;;9.77;53.71;99104.80;89071;1280;25457;-76
2022/09/07 03:16:22;;;;;;;4.90;4.00;;;;;;;9.68;53.78;99100.94;89262;1276;22576;-78
2022/09/07 03:18:25;;;;;;;8.20;4.90;;;;;;;9.67;54.01;99105.91;89069;1279;22703;-78
2022/09/07 03:20:27;;;;;;;6.20;4.30;;;;;;;9.65;53.85;99103.52;89080;1279;22512;-77
2022/09/07 03:22:32;;;;;;;7.50;4.20;;;;;;;9.64;54.15;99104.30;89286;1276;22563;-77
2022/09/07 03:24:35;;;;;;;7.30;4.10;;;;;;;9.62;54.01;99102.98;89146;1279;22559;-77
2022/09/07 03:26:41;;;;;;;6.20;4.30;;;;;;;9.58;54.38;99102.98;88968;1279;22582;-77
2022/09/07 03:28:43;;;;;;;6.60;4.50;;;;;;;9.57;54.09;99108.79;88797;1281;22712;-77
2022/09/07 03:30:46;;;;;;;6.60;4.60;;;;;;;9.55;54.10;99109.75;89050;1280;22586;-77
2022/09/07 03:32:47;;;;;;;19.90;4.60;;;;;;;9.53;54.33;99109.46;89087;1276;22492;-78
2022/09/07 03:34:50;;;;;;;7.60;4.60;;;;;;;9.51;54.26;99107.08;89139;1281;22583;-79
2022/09/07 03:36:52;;;;;;;7.70;5.00;;;;;;;9.49;54.31;99103.88;89179;1279;24102;-79
2022/09/07 03:38:54;;;;;;;11.50;4.80;;;;;;;9.46;54.56;99100.29;89139;1279;22583;-78
2022/09/07 03:41:01;;;;;;;16.60;5.70;;;;;;;9.44;54.69;99098.27;89141;1279;22582;-78
2022/09/07 03:43:03;;;;;;;18.40;4.70;;;;;;;9.42;54.76;99099.79;89221;1280;22591;-76
2022/09/07 03:45:06;;;;;;;8.30;4.80;;;;;;;9.40;54.74;99101.27;89083;1280;22576;-77
2022/09/07 03:47:07;;;;;;;13.00;4.60;;;;;;;9.37;54.61;99105.75;89093;1279;24246;-77
2022/09/07 03:49:10;;;;;;;9.30;4.70;;;;;;;9.37;54.97;99107.35;89063;1276;22646;-77
2022/09/07 03:51:15;;;;;;;12.80;5.10;;;;;;;9.34;54.77;99102.86;89014;1279;24329;-78
2022/09/07 03:53:16;;;;;;;11.10;5.20;;;;;;;9.34;55.01;99099.75;89028;1281;25279;-78
2022/09/07 03:55:18;;;;;;;5.90;4.70;;;;;;;9.32;55.04;99102.44;88896;1281;22512;-78
2022/09/07 03:57:22;;;;;;;9.00;4.80;;;;;;;9.30;55.16;99098.14;89125;1276;23956;-78
2022/09/07 03:59:24;;;;;;;18.80;4.70;;;;;;;9.29;55.29;99097.48;89080;1280;22531;-78
2022/09/07 04:01:27;;;;;;;8.00;4.40;;;;;;;9.28;55.09;99095.23;89098;1279;22685;-79
2022/09/07 04:03:29;;;;;;;13.70;5.40;;;;;;;9.28;55.42;99098.95;88976;1279;22589;-78
2022/09/07 04:05:31;;;;;;;15.30;4.50;;;;;;;9.27;55.10;99099.70;88825;1279;22634;-79
2022/09/07 04:07:33;;;;;;;7.10;5.10;;;;;;;9.25;55.51;99099.61;88968;1276;22604;-79
2022/09/07 04:09:34;;;;;;;17.60;5.50;;;;;;;9.21;55.23;99100.44;88967;1280;22786;-78
2022/09/07 04:11:36;;;;;;;9.60;5.00;;;;;;;9.16;55.56;99099.75;89014;1279;22685;-79
2022/09/07 04:13:38;;;;;;;15.80;5.70;;;;;;;9.15;55.71;99104.01;88788;1281;22582;-78
2022/09/07 04:15:40;;;;;;;15.30;5.60;;;;;;;9.15;55.93;99108.39;88892;1280;22540;-78
2022/09/07 04:17:42;;;;;;;10.60;4.80;;;;;;;9.15;56.03;99110.15;88916;1281;24177;-78
2022/09/07 04:19:43;;;;;;;9.50;5.40;;;;;;;9.15;55.60;99105.05;89194;1279;23908;-79
2022/09/07 04:21:46;;;;;;;8.10;5.60;;;;;;;9.16;55.73;99101.69;88977;1281;22608;-79
2022/09/07 04:23:49;;;;;;;7.30;5.10;;;;;;;9.18;56.06;99106.89;89068;1282;22554;-78
2022/09/07 04:25:51;;;;;;;8.10;5.00;;;;;;;9.18;55.83;99104.97;88883;1279;22603;-78
2022/09/07 04:27:55;;;;;;;13.90;5.50;;;;;;;9.17;55.83;99103.77;88806;1281;24251;-76
2022/09/07 04:29:57;;;;;;;24.70;5.50;;;;;;;9.16;55.83;99105.70;88959;1277;25416;-78
2022/09/07 04:31:59;;;;;;;16.90;5.60;;;;;;;9.15;55.83;99111.90;88970;1278;22600;-78
2022/09/07 04:34:01;;;;;;;9.60;4.70;;;;;;;9.12;55.94;99116.59;89072;1280;24876;-78
2022/09/07 04:36:03;;;;;;;19.50;5.40;;;;;;;9.09;56.28;99114.79;89140;1281;24222;-79
2022/09/07 04:38:06;;;;;;;14.90;5.60;;;;;;;9.07;56.42;99127.13;89234;1280;22573;-77
2022/09/07 04:40:08;;;;;;;11.50;4.90;;;;;;;9.08;56.45;99129.55;89096;1279;22601;-77
2022/09/07 04:42:10;;;;;;;9.90;5.30;;;;;;;9.08;56.56;99132.17;88952;1282;22827;-77
2022/09/07 04:44:12;;;;;;;14.70;5.10;;;;;;;9.10;56.79;99135.77;88914;1279;22558;-77
2022/09/07 04:46:21;;;;;;;7.10;5.30;;;;;;;9.12;56.70;99134.30;89027;1279;22838;-77
2022/09/07 04:48:23;;;;;;;15.40;5.90;;;;;;;9.14;56.49;99136.15;89195;1276;22709;-77
2022/09/07 04:50:25;;;;;;;12.90;5.30;;;;;;;9.15;56.51;99131.20;89090;1281;22554;-77
2022/09/07 04:52:27;;;;;;;34.10;6.20;;;;;;;9.14;56.79;99128.43;89088;1281;22567;-75
2022/09/07 04:54:29;;;;;;;46.70;6.50;;;;;;;9.15;56.79;99122.43;89028;1280;22613;-78
2022/09/07 04:56:32;;;;;;;22.60;6.10;;;;;;;9.17;56.57;99120.25;89040;1279;22617;-77
2022/09/07 04:58:34;;;;;;;25.10;6.30;;;;;;;9.20;56.65;99121.85;88970;1279;22591;-77
2022/09/07 05:00:38;;;;;;;24.70;5.80;;;;;;;9.24;57.05;99122.77;89017;1279;24152;-77
2022/09/07 05:02:39;;;;;;;23.30;6.50;;;;;;;9.27;56.82;99120.73;89088;1279;25277;-78
2022/09/07 05:04:41;;;;;;;21.90;5.80;;;;;;;9.29;57.00;99120.99;89165;1279;22725;-77
2022/09/07 05:06:43;;;;;;;45.60;6.70;;;;;;;9.30;56.72;99118.85;89201;1276;22605;-77
2022/09/07 05:08:49;;;;;;;30.50;7.10;;;;;;;9.35;56.78;99119.34;88911;1281;23985;-77
2022/09/07 05:10:52;;;;;;;32.30;7.00;;;;;;;9.39;56.59;99114.11;89236;1279;22629;-76
2022/09/07 05:12:54;;;;;;;35.20;6.50;;;;;;;9.44;56.76;99109.19;88969;1281;23533;-77
2022/09/07 05:14:56;;;;;;;35.00;7.10;;;;;;;9.48;56.69;99110.75;89297;1281;22563;-77
2022/09/07 05:16:59;;;;;;;33.30;6.20;;;;;;;9.51;56.70;99113.25;89009;1281;22911;-77
2022/09/07 05:19:04;;;;;;;17.80;6.20;;;;;;;9.54;56.32;99114.02;89036;1279;23002;-76
2022/09/07 05:21:15;;;;;;;34.90;6.40;;;;;;;9.56;56.71;99111.46;89218;1280;22580;-78
2022/09/07 05:23:17;;;;;;;;;;;;;;;9.62;56.50;99114.89;89332;1279;25864;-77
2022/09/07 05:25:19;;;;;;;23.80;6.00;;;;;;;9.65;56.63;99116.35;89167;1279;22518;-77
2022/09/07 05:27:20;;;;;;;22.40;6.90;;;;;;;9.69;56.56;99116.16;89244;1276;22547;-78
2022/09/07 05:29:22;;;;;;;57.30;7.60;;;;;;;9.75;56.74;99108.58;88962;1281;22807;-78
2022/09/07 05:31:25;;;;;;;19.00;6.70;;;;;;;9.80;56.54;99112.73;89134;1281;24269;-77
2022/09/07 05:33:27;;;;;;;27.40;6.40;;;;;;;9.84;56.89;99106.44;89128;1280;25711;-77
2022/09/07 05:35:28;;;;;;;28.10;6.90;;;;;;;9.88;56.70;99111.16;89182;1280;22595;-77
2022/09/07 05:37:30;;;;;;;27.10;6.90;;;;;;;9.93;56.54;99109.20;89168;1279;22580;-78
2022/09/07 05:39:32;;;;;;;17.80;7.20;;;;;;;9.96;56.71;99108.16;89124;1279;22635;-77
2022/09/07 05:41:34;;;;;;;30.80;6.60;;;;;;;9.98;56.55;99111.80;89168;1280;22862;-76
2022/09/07 05:43:36;;;;;;;18.80;6.50;;;;;;;10.00;56.62;99115.73;89194;1279;22568;-78
2022/09/07 05:45:38;;;;;;;24.70;6.30;;;;;;;10.06;56.76;99116.73;89023;1281;24016;-78
2022/09/07 05:47:39;;;;;;;20.10;7.10;;;;;;;10.10;56.72;99113.58;89048;1281;23430;-77
2022/09/07 05:49:41;;;;;;;26.00;6.80;;;;;;;10.14;56.71;99109.35;89056;1280;22575;-78
2022/09/07 05:51:44;;;;;;;21.60;6.70;;;;;;;10.19;56.58;99114.75;88973;1281;22661;-79
2022/09/07 05:53:47;;;;;;;20.40;6.00;;;;;;;10.24;56.53;99117.84;89189;1278;23694;-78
2022/09/07 05:55:49;;;;;;;17.40;6.50;;;;;;;10.30;56.78;99115.67;88976;1281;25402;-80
2022/09/07 05:57:51;;;;;;;35.90;6.90;;;;;;;10.34;56.71;99116.87;89210;1280;22636;-77
2022/09/07 05:59:53;;;;;;;24.60;7.90;;;;;;;10.39;56.72;99112.98;89117;1281;22569;-76
2022/09/07 06:01:55;;;;;;;23.20;6.90;;;;;;;10.49;56.55;99115.19;89124;1281;22557;-78
2022/09/07 06:03:56;;;;;;;16.00;6.40;;;;;;;10.55;56.64;99117.19;89158;1277;22664;-78
2022/09/07 06:06:07;;;;;;;35.30;7.20;;;;;;;10.63;56.65;99117.70;89017;1280;22735;-78
2022/09/07 06:08:09;;;;;;;22.70;6.90;;;;;;;10.70;56.60;99116.30;89064;1280;22568;-78
2022/09/07 06:10:10;;;;;;;24.80;7.00;;;;;;;10.75;56.49;99113.80;89117;1280;22650;-78
2022/09/07 06:12:12;;;;;;;16.60;7.50;;;;;;;10.83;56.59;99112.70;89084;1280;22728;-77
2022/09/07 06:14:14;;;;;;;14.70;6.10;;;;;;;10.89;56.54;99113.33;88962;1279;22486;-78
2022/09/07 06:16:18;;;;;;;18.60;7.70;;;;;;;10.95;56.56;99120.28;89125;1281;22684;-78
2022/09/07 06:18:20;;;;;;;23.60;6.70;;;;;;;11.00;56.78;99121.42;89317;1278;23100;-78
2022/09/07 06:20:22;;;;;;;18.80;6.90;;;;;;;11.07;56.85;99123.17;89114;1281;22569;-79
2022/09/07 06:22:24;;;;;;;26.10;7.40;;;;;;;11.12;56.53;99122.30;89167;1281;23018;-78
2022/09/07 06:24:26;;;;;;;27.20;7.30;;;;;;;11.19;56.57;99121.23;89257;1277;22549;-76
2022/09/07 06:26:27;;;;;;;21.80;7.80;;;;;;;11.28;56.69;99125.71;89139;1281;23114;-78
2022/09/07 06:28:47;;;;;;;16.30;7.30;;;;;;;11.36;56.74;99122.16;89082;1279;24335;-77
2022/09/07 06:30:49;;;;;;;14.80;7.60;;;;;;;11.48;56.58;99122.30;89009;1281;25403;-78
2022/09/07 06:32:51;;;;;;;17.80;7.70;;;;;;;11.56;56.66;99119.41;88967;1281;22515;-79
2022/09/07 06:34:53;;;;;;;33.00;7.90;;;;;;;11.63;56.40;99119.10;88659;1281;22590;-78
2022/09/07 06:36:55;;;;;;;29.50;7.50;;;;;;;11.68;56.38;99116.20;88880;1281;22743;-78
2022/09/07 06:39:00;;;;;;;25.20;8.10;;;;;;;11.74;56.40;99110.43;88992;1281;22580;-77
2022/09/07 06:41:04;;;;;;;25.90;8.30;;;;;;;11.82;56.60;99109.48;89053;1281;22611;-78
2022/09/07 06:43:06;;;;;;;19.20;7.60;;;;;;;11.90;56.47;99108.38;88972;1281;22658;-79
2022/09/07 06:45:09;;;;;;;22.00;8.20;;;;;;;11.96;56.37;99108.96;88926;1281;22556;-77
2022/09/07 06:47:11;;;;;;;17.60;7.30;;;;;;;12.04;56.56;99109.63;89021;1277;22557;-78
2022/09/07 06:49:13;;;;;;;22.30;8.00;;;;;;;12.15;56.49;99110.81;89013;1281;22569;-78
2022/09/07 06:51:17;;;;;;;11.20;7.50;;;;;;;12.26;56.41;99110.27;89008;1282;22563;-78
2022/09/07 06:53:20;;;;;;;20.40;6.90;;;;;;;12.35;56.37;99109.77;88881;1281;22703;-78
2022/09/07 06:55:22;;;;;;;24.50;7.80;;;;;;;12.44;56.43;99105.94;88938;1281;24345;-78
2022/09/07 06:57:25;;;;;;;13.10;7.90;;;;;;;12.53;56.23;99105.64;89405;1278;23800;-78
2022/09/07 06:59:28;;;;;;;21.60;8.00;;;;;;;12.61;56.39;99104.52;89229;1284;22605;-78
2022/09/07 07:01:32;;;;;;;27.10;8.30;;;;;;;12.72;56.44;99107.43;88788;1282;22804;-79
2022/09/07 07:03:35;;;;;;;14.90;7.10;;;;;;;12.83;56.20;99108.08;88747;1281;22652;-77
2022/09/07 07:05:37;;;;;;;21.50;7.90;;;;;;;12.92;56.31;99109.15;88926;1282;22600;-78
2022/09/07 07:07:39;;;;;;;17.20;7.20;;;;;;;13.01;56.31;99116.95;88880;1281;22632;-79
2022/09/07 07:09:40;;;;;;;26.00;8.10;;;;;;;13.08;56.24;99113.36;88835;1282;22569;-79
2022/09/07 07:11:43;;;;;;;16.80;8.00;;;;;;;13.12;56.02;99112.61;88892;1278;22673;-77
2022/09/07 07:13:45;;;;;;;26.30;8.50;;;;;;;13.19;56.15;99108.70;88579;1281;25463;-79
2022/09/07 07:15:47;;;;;;;14.40;7.70;;;;;;;13.27;56.06;99108.23;88694;1277;25233;-79
2022/09/07 07:17:49;;;;;;;14.90;6.90;;;;;;;13.35;56.01;99103.55;88490;1281;22594;-79
2022/09/07 07:19:51;;;;;;;16.70;7.70;;;;;;;13.41;55.93;99100.39;88567;1277;23276;-78
2022/09/07 07:21:53;;;;;;;22.60;8.50;;;;;;;13.50;56.10;99096.18;88418;1281;24612;-78
2022/09/07 07:23:54;;;;;;;34.80;8.40;;;;;;;13.60;55.76;99094.36;88584;1277;22549;-79
2022/09/07 07:26:14;;;;;;;19.20;7.50;;;;;;;13.65;55.84;99095.70;88529;1279;22596;-78
2022/09/07 07:28:16;;;;;;;21.90;8.10;;;;;;;13.69;56.02;99092.60;88408;1281;22855;-79
2022/09/07 07:30:19;;;;;;;27.10;8.10;;;;;;;13.81;55.85;99094.04;88477;1281;22618;-79
2022/09/07 07:32:21;;;;;;;18.20;6.60;;;;;;;13.89;56.09;99094.11;88810;1278;22603;-79
2022/09/07 07:34:22;;;;;;;17.70;7.20;;;;;;;13.91;56.00;99088.27;88457;1278;25921;-79
2022/09/07 07:36:25;;;;;;;16.20;7.50;;;;;;;14.03;55.77;99096.58;88499;1281;24365;-80
2022/09/07 07:38:29;;;;;;;21.90;7.40;;;;;;;14.10;56.04;99094.58;88570;1278;22799;-79
2022/09/07 07:40:31;;;;;;;24.10;7.80;;;;;;;14.20;55.76;99091.16;88477;1281;25278;-79
2022/09/07 07:42:34;;;;;;;17.20;7.60;;;;;;;14.30;55.67;99091.95;88492;1278;22720;-79
2022/09/07 07:44:36;;;;;;;16.00;7.60;;;;;;;14.37;55.71;99090.98;88609;1277;23702;-80
2022/09/07 07:46:38;;;;;;;23.70;7.20;;;;;;;14.44;55.79;99088.08;88597;1277;22569;-79
2022/09/07 07:48:40;;;;;;;25.10;7.40;;;;;;;14.51;55.79;99092.41;88267;1279;22736;-79
2022/09/07 07:50:42;;;;;;;14.00;6.20;;;;;;;14.60;55.84;99089.92;88375;1281;22637;-77
2022/09/07 07:52:44;;;;;;;13.00;6.90;;;;;;;14.65;55.60;99089.48;88525;1278;22644;-79
2022/09/07 07:54:45;;;;;;;26.70;7.40;;;;;;;14.64;55.47;99086.36;88514;1281;22654;-80
2022/09/07 07:56:47;;;;;;;36.30;7.30;;;;;;;14.68;55.62;99086.42;88696;1278;24272;-78
2022/09/07 07:58:51;;;;;;;21.50;7.10;;;;;;;14.79;55.61;99085.20;88651;1278;22588;-79
2022/09/07 08:01:01;;;;;;;19.60;7.50;;;;;;;14.89;55.67;99082.61;88404;1281;22568;-79
2022/09/07 08:03:03;;;;;;;29.80;6.80;;;;;;;14.97;55.69;99086.86;88491;1281;22567;-79
2022/09/07 08:05:05;;;;;;;14.70;7.10;;;;;;;15.02;55.53;99088.50;88930;1281;22702;-79
2022/09/07 08:07:08;;;;;;;26.40;7.60;;;;;;;15.05;55.53;99088.69;88960;1278;23426;-79
2022/09/07 08:09:10;;;;;;;30.90;8.10;;;;;;;15.08;55.47;99088.48;89248;1278;22557;-79
2022/09/07 08:11:16;;;;;;;19.40;7.40;;;;;;;15.19;55.70;99090.60;88907;1280;22521;-78
2022/09/07 08:13:20;;;;;;;19.50;6.40;;;;;;;15.32;55.48;99088.19;88729;1281;23978;-77
2022/09/07 08:15:22;;;;;;;26.80;7.40;;;;;;;15.39;55.41;99088.09;89134;1281;22560;-81
2022/09/07 08:17:24;;;;;;;15.30;7.20;;;;;;;15.53;55.46;99089.11;89498;1278;22568;-79
2022/09/07 08:19:25;;;;;;;35.40;8.40;;;;;;;15.68;55.15;99092.70;89162;1277;22606;-80
2022/09/07 08:21:27;;;;;;;31.30;7.80;;;;;;;15.74;55.02;99090.54;88975;1281;24591;-78
2022/09/07 08:23:31;;;;;;;25.50;7.90;;;;;;;15.79;54.79;99087.86;89128;1277;23660;-77
2022/09/07 08:25:35;;;;;;;29.60;7.40;;;;;;;15.87;55.30;99084.14;88939;1281;25313;-78
2022/09/07 08:27:37;;;;;;;19.50;7.40;;;;;;;16.04;55.36;99084.09;89121;1281;22697;-79
2022/09/07 08:29:38;;;;;;;16.80;7.10;;;;;;;16.23;55.42;99082.21;89036;1281;22704;-80
2022/09/07 08:31:40;;;;;;;21.40;6.90;;;;;;;16.40;55.05;99076.94;89352;1281;27284;-78
2022/09/07 08:33:42;;;;;;;33.00;7.40;;;;;;;16.52;54.98;99070.98;89178;1278;22619;-79
2022/09/07 08:35:54;;;;;;;15.40;7.70;;;;;;;16.65;54.54;99074.17;89285;1276;24254;-79
2022/09/07 08:37:56;;;;;;;29.80;7.90;;;;;;;16.78;54.76;99074.24;89143;1279;24336;-79
2022/09/07 08:39:58;;;;;;;28.10;7.00;;;;;;;16.93;54.50;99073.58;89184;1280;22775;-78
2022/09/07 08:42:28;;;;;;;30.30;7.40;;;;;;;17.02;54.53;99065.27;89041;1280;22647;-79
2022/09/07 08:44:46;;;;;;;48.30;8.60;;;;;;;17.21;54.65;99067.46;89570;1277;25346;-81
2022/09/07 08:46:59;;;;;;;30.50;8.10;;;;;;;17.34;54.36;99059.73;89502;1280;22862;-80
2022/09/07 08:49:05;;;;;;;32.40;8.50;;;;;;;17.45;54.29;99058.69;89157;1281;22742;-79
2022/09/07 08:51:18;;;;;;;48.80;7.80;;;;;;;17.59;54.14;99055.91;88971;1281;22677;-79
2022/09/07 08:53:23;;;;;;;11.20;6.20;;;;;;;17.74;54.15;99054.95;89134;1277;24378;-79
2022/09/07 08:55:32;;;;;;;17.30;7.20;;;;;;;17.81;53.94;99052.45;89170;1280;22952;-79
2022/09/07 08:57:40;;;;;;;12.00;6.10;;;;;;;17.95;54.01;99050.19;89270;1277;22689;-77
2022/09/07 09:00:07;;;;;;;18.50;6.70;;;;;;;18.04;53.61;99047.13;89218;1278;22716;-79
2022/09/07 09:02:15;;;;;;;33.30;7.20;;;;;;;18.19;53.72;99049.73;89048;1279;22983;-78
2022/09/07 09:04:25;;;;;;;35.40;7.10;;;;;;;18.32;53.76;99046.77;88923;1280;24250;-78
2022/09/07 09:06:59;;;;;;;15.80;6.40;;;;;;;18.49;53.72;99046.84;89132;1277;24274;-76
2022/09/07 09:09:29;;;;;;;12.50;5.50;;;;;;;18.60;53.49;99041.00;88478;1284;24237;-80
2022/09/07 09:11:48;;;;;;;24.50;6.90;;;;;;;18.62;53.06;99049.00;88537;1284;23579;-79
2022/09/07 09:14:01;;;;;;;14.40;5.70;;;;;;;18.69;53.02;99047.92;88279;1287;22927;-79
2022/09/07 09:16:09;;;;;;;17.60;5.70;;;;;;;18.71;53.03;99045.55;88431;1287;22583;-79
2022/09/07 09:18:44;;;;;;;41.00;7.30;;;;;;;18.81;53.07;99041.05;88792;1288;22520;-80
2022/09/07 09:20:57;;;;;;;18.00;5.90;;;;;;;18.97;53.15;99043.17;88991;1284;24322;-80
2022/09/07 09:23:11;;;;;;;22.60;6.30;;;;;;;19.07;52.41;99042.88;88670;1287;23107;-80
2022/09/07 09:25:19;;;;;;;39.70;6.60;;;;;;;19.08;52.27;99042.86;88393;1287;22862;-78
2022/09/07 09:27:21;;;;;;;14.30;5.40;;;;;;;19.15;52.28;99043.83;88647;1284;22678;-79
2022/09/07 09:29:22;;;;;;;12.00;5.00;;;;;;;19.13;52.02;99046.45;88618;1291;22595;-79
2022/09/07 09:31:31;;;;;;;22.40;5.70;;;;;;;19.13;51.89;99042.04;88612;1287;22654;-81
2022/09/07 09:33:33;;;;;;;11.80;6.00;;;;;;;19.15;51.81;99040.63;88569;1287;22598;-80
2022/09/07 09:35:37;;;;;;;12.80;5.00;;;;;;;19.25;52.11;99042.66;88165;1287;22595;-75
2022/09/07 09:37:40;;;;;;;20.20;5.80;;;;;;;19.34;51.49;99037.85;88181;1287;23803;-79
2022/09/07 09:39:44;;;;;;;9.00;5.50;;;;;;;19.37;51.81;99039.73;88673;1285;22582;-81
2022/09/07 09:41:46;;;;;;;27.60;5.30;;;;;;;19.49;51.84;99037.46;88542;1285;22659;-78
2022/09/07 09:43:56;;;;;;;69.90;8.30;;;;;;;19.66;51.72;99040.11;88392;1287;22719;-79
2022/09/07 09:46:00;;;;;;;13.10;4.90;;;;;;;19.81;51.49;99044.20;89045;1280;22569;-80
2022/09/07 09:48:09;;;;;;;22.30;4.90;;;;;;;19.95;51.40;99042.83;89528;1279;25995;-76
2022/09/07 09:50:37;;;;;;;8.40;4.40;;;;;;;20.09;50.68;99040.98;89006;1279;22567;-78